createdAt,value
2017-08-03T00:01:46.619Z,51.43
2017-08-03T00:03:49.747Z,51.45
2017-08-03T00:05:52.887Z,51.40
2017-08-03T00:07:56.253Z,51.44
2017-08-03T00:10:00.125Z,51.45
2017-08-03T00:12:03.826Z,51.53
2017-08-03T00:14:07.226Z,51.51
2017-08-03T00:16:10.636Z,51.55
2017-08-03T00:18:14.082Z,51.58
2017-08-03T00:20:17.448Z,51.51
2017-08-03T00:22:20.588Z,51.56
2017-08-03T00:24:24.044Z,51.62
2017-08-03T00:26:27.701Z,51.61
2017-08-03T00:28:31.332Z,51.59
2017-08-03T00:30:35.068Z,51.68
2017-08-03T00:32:38.646Z,51.62
2017-08-03T00:34:42.109Z,51.68
2017-08-03T00:36:45.512Z,51.68
2017-08-03T00:38:48.870Z,51.71
2017-08-03T00:40:52.416Z,51.69
2017-08-03T00:42:55.764Z,51.71
2017-08-03T00:44:59.862Z,51.80
2017-08-03T00:47:03.331Z,51.71
2017-08-03T00:49:06.616Z,51.78
2017-08-03T00:51:10.005Z,51.76
2017-08-03T00:53:13.428Z,51.77
2017-08-03T00:55:16.585Z,51.76
2017-08-03T00:57:19.985Z,51.79
2017-08-03T00:59:23.458Z,51.77
2017-08-03T01:01:27.051Z,51.77
2017-08-03T01:03:30.544Z,51.78
2017-08-03T01:05:33.951Z,51.70
2017-08-03T01:07:37.303Z,51.78
2017-08-03T01:09:40.797Z,51.79
2017-08-03T01:11:44.195Z,51.74
2017-08-03T01:13:48.335Z,51.67
2017-08-03T01:15:51.945Z,51.68
2017-08-03T01:17:55.277Z,51.63
2017-08-03T01:19:58.693Z,51.68
2017-08-03T01:22:02.239Z,51.66
2017-08-03T01:24:05.603Z,51.64
2017-08-03T01:26:08.870Z,51.61
2017-08-03T01:28:12.321Z,51.71
2017-08-03T01:30:15.662Z,51.67
2017-08-03T01:32:18.976Z,51.75
2017-08-03T01:34:22.445Z,51.70
2017-08-03T01:36:26.024Z,51.72
2017-08-03T01:38:29.346Z,51.74
2017-08-03T01:40:32.859Z,51.75
2017-08-03T01:42:36.214Z,51.74
2017-08-03T01:44:39.487Z,51.76
2017-08-03T01:46:47.125Z,51.72
2017-08-03T01:48:50.792Z,51.78
2017-08-03T01:50:54.343Z,51.78
2017-08-03T01:52:57.881Z,51.73
2017-08-03T01:55:01.770Z,51.81
2017-08-03T01:57:05.385Z,51.83
2017-08-03T01:59:08.666Z,51.81
2017-08-03T02:01:12.033Z,51.79
2017-08-03T02:03:15.088Z,51.76
2017-08-03T02:05:18.465Z,51.76
2017-08-03T02:07:22.133Z,51.72
2017-08-03T02:09:25.430Z,51.79
2017-08-03T02:11:28.784Z,51.84
2017-08-03T02:13:31.926Z,51.72
2017-08-03T02:15:35.128Z,51.82
2017-08-03T02:17:38.322Z,51.76
2017-08-03T02:19:41.672Z,51.88
2017-08-03T02:21:49.940Z,51.91
2017-08-03T02:23:53.537Z,51.90
2017-08-03T02:25:57.736Z,51.85
2017-08-03T02:28:01.090Z,51.92
2017-08-03T02:30:04.549Z,51.89
2017-08-03T02:32:07.865Z,51.92
2017-08-03T02:34:11.130Z,51.88
2017-08-03T02:36:14.615Z,51.94
2017-08-03T02:38:18.240Z,51.87
2017-08-03T02:40:22.168Z,51.95
2017-08-03T02:42:25.670Z,51.93
2017-08-03T02:44:29.072Z,51.86
2017-08-03T02:46:32.508Z,51.86
2017-08-03T02:48:35.947Z,51.88
2017-08-03T02:50:39.481Z,51.84
2017-08-03T02:52:42.868Z,51.89
2017-08-03T02:54:46.142Z,51.87
2017-08-03T02:56:50.224Z,51.88
2017-08-03T02:58:53.577Z,51.83
2017-08-03T03:00:56.691Z,51.75
2017-08-03T03:02:59.834Z,51.82
2017-08-03T03:05:03.016Z,51.77
2017-08-03T03:07:07.162Z,51.77
2017-08-03T03:09:10.638Z,51.81
2017-08-03T03:11:13.854Z,51.84
2017-08-03T03:13:17.044Z,51.66
2017-08-03T03:15:20.445Z,51.74
2017-08-03T03:17:24.044Z,51.71
2017-08-03T03:19:27.685Z,51.74
2017-08-03T03:21:31.079Z,51.75
2017-08-03T03:23:34.393Z,51.67
2017-08-03T03:25:37.872Z,51.68
2017-08-03T03:27:41.149Z,51.67
2017-08-03T03:29:44.476Z,51.69
2017-08-03T03:31:48.021Z,51.65
2017-08-03T03:33:51.875Z,51.68
2017-08-03T03:35:55.453Z,51.65
2017-08-03T03:37:58.959Z,51.56
2017-08-03T03:40:02.340Z,51.55
2017-08-03T03:42:05.605Z,51.47
2017-08-03T03:44:09.335Z,51.50
2017-08-03T03:46:28.407Z,51.69
2017-08-03T03:48:46.849Z,51.69
2017-08-03T03:51:05.157Z,51.51
2017-08-03T03:53:23.452Z,51.55
2017-08-03T03:55:41.913Z,51.67
2017-08-03T03:58:03.584Z,51.66
2017-08-03T04:00:21.942Z,51.50
2017-08-03T04:02:40.604Z,51.46
2017-08-03T04:04:59.297Z,51.37
2017-08-03T04:07:17.351Z,51.19
2017-08-03T04:09:35.815Z,51.33
2017-08-03T04:11:53.930Z,51.19
2017-08-03T04:14:12.146Z,51.44
2017-08-03T04:16:30.189Z,51.38
2017-08-03T04:18:48.411Z,51.45
2017-08-03T04:21:06.460Z,51.27
2017-08-03T04:23:24.514Z,51.30
2017-08-03T04:25:42.905Z,51.25
2017-08-03T04:28:01.218Z,51.41
2017-08-03T04:30:19.615Z,51.31
2017-08-03T04:32:38.021Z,51.24
2017-08-03T04:34:56.441Z,51.20
2017-08-03T04:37:14.465Z,51.21
2017-08-03T04:39:32.604Z,51.22
2017-08-03T04:41:51.816Z,51.21
2017-08-03T04:43:55.024Z,51.16
2017-08-03T04:45:58.157Z,51.16
2017-08-03T04:48:01.312Z,51.20
2017-08-03T04:50:04.669Z,51.26
2017-08-03T04:52:08.291Z,51.14
2017-08-03T04:54:11.378Z,51.24
2017-08-03T04:56:14.584Z,51.10
2017-08-03T04:58:17.712Z,51.16
2017-08-03T05:00:20.722Z,51.22
2017-08-03T05:02:23.718Z,51.20
2017-08-03T05:04:26.864Z,51.18
2017-08-03T05:06:30.237Z,51.17
2017-08-03T05:08:33.267Z,51.10
2017-08-03T05:10:36.535Z,51.02
2017-08-03T05:12:39.582Z,51.04
2017-08-03T05:14:43.480Z,51.02
2017-08-03T05:16:46.541Z,51.01
2017-08-03T05:18:49.845Z,51.00
2017-08-03T05:20:53.094Z,50.94
2017-08-03T05:22:56.568Z,51.09
2017-08-03T05:24:59.930Z,50.79
2017-08-03T05:27:02.968Z,49.48
2017-08-03T05:29:06.107Z,46.19
2017-08-03T05:31:09.124Z,44.23
2017-08-03T05:33:12.319Z,43.29
2017-08-03T05:35:15.470Z,43.25
2017-08-03T05:37:18.457Z,42.84
2017-08-03T05:39:21.571Z,42.42
2017-08-03T05:41:25.115Z,42.43
2017-08-03T05:43:28.249Z,42.21
2017-08-03T05:45:31.264Z,42.56
2017-08-03T05:47:35.566Z,42.59
2017-08-03T05:49:39.087Z,42.63
2017-08-03T05:51:42.515Z,42.75
2017-08-03T05:53:46.026Z,43.03
2017-08-03T05:55:49.009Z,43.04
2017-08-03T05:57:54.995Z,43.04
2017-08-03T05:59:58.066Z,43.00
2017-08-03T06:02:01.118Z,43.25
2017-08-03T06:04:04.191Z,43.43
2017-08-03T06:06:07.331Z,43.57
2017-08-03T06:08:10.459Z,43.72
2017-08-03T06:10:13.533Z,43.74
2017-08-03T06:12:17.315Z,43.49
2017-08-03T06:14:20.783Z,44.02
2017-08-03T06:16:23.826Z,43.76
2017-08-03T06:18:27.514Z,44.36
2017-08-03T06:20:30.579Z,44.49
2017-08-03T06:22:33.679Z,44.70
2017-08-03T06:24:37.142Z,44.96
2017-08-03T06:26:40.248Z,45.03
2017-08-03T06:28:43.384Z,45.39
2017-08-03T06:30:46.591Z,45.30
2017-08-03T06:32:49.711Z,45.52
2017-08-03T06:34:52.758Z,46.17
2017-08-03T06:36:55.871Z,45.65
2017-08-03T06:38:58.935Z,46.43
2017-08-03T06:41:02.029Z,45.39
2017-08-03T06:43:05.209Z,45.89
2017-08-03T06:45:08.243Z,46.10
2017-08-03T06:47:11.284Z,46.39
2017-08-03T06:49:15.069Z,46.43
2017-08-03T06:51:18.153Z,46.51
2017-08-03T06:53:21.581Z,46.51
2017-08-03T06:55:25.476Z,47.04
2017-08-03T06:57:28.759Z,46.77
2017-08-03T06:59:31.815Z,46.61
2017-08-03T07:01:35.356Z,46.62
2017-08-03T07:03:38.635Z,47.09
2017-08-03T07:05:41.843Z,46.64
2017-08-03T07:07:45.422Z,46.49
2017-08-03T07:09:48.419Z,46.52
2017-08-03T07:11:51.907Z,46.51
2017-08-03T07:13:57.765Z,46.64
2017-08-03T07:16:00.850Z,46.66
2017-08-03T07:18:04.676Z,46.95
2017-08-03T07:20:07.839Z,46.79
2017-08-03T07:22:10.900Z,46.57
2017-08-03T07:24:13.877Z,46.62
2017-08-03T07:26:16.940Z,47.17
2017-08-03T07:28:19.966Z,46.70
2017-08-03T07:30:23.064Z,46.96
2017-08-03T07:32:26.862Z,46.85
2017-08-03T07:34:29.982Z,47.06
2017-08-03T07:36:33.249Z,47.11
2017-08-03T07:38:36.918Z,46.95
2017-08-03T07:40:40.162Z,46.96
2017-08-03T07:42:43.181Z,46.74
2017-08-03T07:44:47.241Z,46.98
2017-08-03T07:46:50.590Z,46.41
2017-08-03T07:48:53.983Z,46.62
2017-08-03T07:50:57.358Z,46.64
2017-08-03T07:53:00.937Z,46.74
2017-08-03T07:55:04.107Z,47.03
2017-08-03T07:57:07.755Z,47.20
2017-08-03T07:59:10.992Z,46.75
2017-08-03T08:01:14.023Z,46.36
2017-08-03T08:03:17.439Z,46.71
2017-08-03T08:05:20.852Z,46.39
2017-08-03T08:07:24.304Z,46.34
2017-08-03T08:09:27.957Z,46.13
2017-08-03T08:11:30.956Z,46.73
2017-08-03T08:13:34.030Z,46.21
2017-08-03T08:15:37.618Z,46.06
2017-08-03T08:17:40.655Z,46.21
2017-08-03T08:19:43.680Z,46.44
2017-08-03T08:21:46.794Z,46.20
2017-08-03T08:23:49.870Z,46.31
2017-08-03T08:25:53.789Z,45.96
2017-08-03T08:27:58.700Z,45.95
2017-08-03T08:30:03.633Z,46.60
2017-08-03T08:32:15.062Z,49.97
2017-08-03T08:34:20.084Z,49.73
2017-08-03T08:36:23.168Z,53.95
2017-08-03T08:38:30.029Z,51.40
2017-08-03T08:40:33.585Z,58.34
2017-08-03T08:42:37.775Z,62.84
2017-08-03T08:44:40.799Z,63.90
2017-08-03T08:46:44.118Z,64.64
2017-08-03T08:48:47.234Z,64.87
2017-08-03T08:50:50.430Z,64.73
2017-08-03T08:52:55.469Z,64.92
2017-08-03T08:54:58.586Z,64.89
2017-08-03T08:57:03.127Z,64.76
2017-08-03T08:59:06.495Z,64.61
2017-08-03T09:01:09.479Z,64.58
2017-08-03T09:03:12.629Z,64.41
2017-08-03T09:05:19.747Z,63.86
2017-08-03T09:07:24.574Z,63.86
2017-08-03T09:09:30.782Z,63.62
2017-08-03T09:11:33.893Z,63.43
2017-08-03T09:13:38.682Z,63.41
2017-08-03T09:15:42.412Z,63.28
2017-08-03T09:17:47.857Z,63.16
2017-08-03T09:19:50.981Z,63.02
2017-08-03T09:21:59.946Z,62.83
2017-08-03T09:24:04.314Z,62.40
2017-08-03T09:26:08.999Z,55.84
2017-08-03T09:28:12.236Z,55.85
2017-08-03T09:30:15.299Z,57.93
2017-08-03T09:32:21.360Z,58.26
2017-08-03T09:34:28.061Z,59.05
2017-08-03T09:36:31.479Z,60.00
2017-08-03T09:38:38.038Z,60.30
2017-08-03T09:40:45.597Z,59.83
2017-08-03T09:42:49.198Z,59.27
2017-08-03T09:44:52.196Z,59.42
2017-08-03T09:47:18.162Z,59.45
2017-08-03T09:49:43.282Z,59.50
2017-08-03T09:52:05.715Z,59.76
2017-08-03T09:54:26.758Z,59.72
2017-08-03T09:56:48.532Z,59.73
2017-08-03T09:59:11.293Z,60.10
2017-08-03T10:01:32.625Z,59.61
2017-08-03T10:03:58.192Z,59.72
2017-08-03T10:06:20.261Z,59.55
2017-08-03T10:08:41.633Z,59.44
2017-08-03T10:11:07.182Z,59.29
2017-08-03T10:13:31.134Z,59.31
2017-08-03T10:15:56.971Z,59.17
2017-08-03T10:18:21.917Z,59.11
2017-08-03T10:20:41.346Z,59.63
2017-08-03T10:23:02.375Z,59.54
2017-08-03T10:25:20.590Z,59.64
2017-08-03T10:27:38.802Z,59.19
2017-08-03T10:29:56.846Z,59.25
2017-08-03T10:32:15.430Z,59.06
2017-08-03T10:34:33.645Z,59.05
2017-08-03T10:36:51.771Z,59.24
2017-08-03T10:39:10.021Z,59.09
2017-08-03T10:41:28.234Z,59.16
2017-08-03T10:43:46.375Z,59.00
2017-08-03T10:46:06.907Z,58.77
2017-08-03T10:48:25.183Z,58.56
2017-08-03T10:50:43.277Z,58.63
2017-08-03T10:53:01.577Z,58.45
2017-08-03T10:55:19.717Z,59.00
2017-08-03T10:57:37.791Z,58.39
2017-08-03T10:59:56.524Z,58.28
2017-08-03T11:02:14.743Z,58.57
2017-08-03T11:04:32.814Z,58.46
2017-08-03T11:06:51.170Z,58.54
2017-08-03T11:09:09.408Z,58.38
2017-08-03T11:11:27.496Z,58.51
2017-08-03T11:13:45.690Z,58.26
2017-08-03T11:16:03.833Z,58.11
2017-08-03T11:18:22.000Z,57.80
2017-08-03T11:20:40.595Z,57.52
2017-08-03T11:22:58.691Z,58.02
2017-08-03T11:25:16.794Z,57.65
2017-08-03T11:27:35.013Z,57.36
2017-08-03T11:29:48.207Z,58.01
2017-08-03T11:32:06.345Z,57.66
2017-08-03T11:34:24.557Z,57.95
2017-08-03T11:36:42.688Z,57.37
2017-08-03T11:39:00.725Z,57.07
2017-08-03T11:41:18.942Z,56.61
2017-08-03T11:43:37.096Z,57.12
2017-08-03T11:45:55.235Z,57.50
2017-08-03T11:48:13.991Z,57.21
2017-08-03T11:50:32.101Z,56.73
2017-08-03T11:52:50.404Z,57.42
2017-08-03T11:55:08.609Z,56.86
2017-08-03T11:57:26.753Z,56.38
2017-08-03T11:59:44.981Z,56.32
2017-08-03T12:02:03.577Z,56.72
2017-08-03T12:04:21.698Z,56.33
2017-08-03T12:06:39.813Z,56.14
2017-08-03T12:08:58.310Z,56.45
2017-08-03T12:11:16.405Z,56.18
2017-08-03T12:13:34.568Z,56.36
2017-08-03T12:15:53.428Z,55.56
2017-08-03T12:17:56.863Z,55.67
2017-08-03T12:20:00.177Z,55.27
2017-08-03T12:22:05.270Z,55.64
2017-08-03T12:24:08.360Z,55.48
2017-08-03T12:26:11.485Z,55.56
2017-08-03T12:28:14.929Z,55.50
2017-08-03T12:30:18.206Z,55.95
2017-08-03T12:32:21.445Z,55.51
2017-08-03T12:34:24.701Z,55.25
2017-08-03T12:36:27.862Z,55.28
2017-08-03T12:38:31.266Z,54.80
2017-08-03T12:40:34.842Z,55.05
2017-08-03T12:42:38.051Z,54.89
2017-08-03T12:44:41.121Z,54.87
2017-08-03T12:46:44.231Z,55.38
2017-08-03T12:48:47.486Z,55.36
2017-08-03T12:50:50.655Z,52.71
2017-08-03T12:52:54.046Z,50.50
2017-08-03T12:54:57.278Z,51.13
2017-08-03T12:57:00.455Z,50.82
2017-08-03T12:59:04.504Z,48.12
2017-08-03T13:01:07.944Z,48.59
2017-08-03T13:03:11.268Z,47.76
2017-08-03T13:05:14.600Z,48.30
2017-08-03T13:07:17.752Z,47.81
2017-08-03T13:09:20.937Z,45.71
2017-08-03T13:11:24.177Z,46.82
